createdAt,value
2023-07-05T00:05:02.567Z,1015.3
2023-07-05T00:10:39.686Z,1015.5
2023-07-05T00:16:09.230Z,1015.7
2023-07-05T00:21:37.008Z,1015.8
2023-07-05T00:27:10.486Z,1015.9
2023-07-05T00:32:52.280Z,1016.4
2023-07-05T00:38:08.880Z,1016.3
2023-07-05T00:44:08.816Z,1016.2
2023-07-05T00:49:25.253Z,1016.2
2023-07-05T00:55:18.714Z,1016.1
2023-07-05T01:00:26.786Z,1016
2023-07-05T01:06:16.617Z,1016.1
2023-07-05T01:11:56.975Z,1016.4
2023-07-05T01:17:36.601Z,1016.6
2023-07-05T01:22:49.409Z,1016.6
2023-07-05T01:34:00.588Z,1016.6
2023-07-05T01:39:33.712Z,1016.4
2023-07-05T01:45:13.838Z,1016.7
2023-07-05T01:50:38.748Z,1016.8
2023-07-05T01:56:28.545Z,1016.9
2023-07-05T02:02:02.534Z,1016.9
2023-07-05T02:07:21.168Z,1016.9
2023-07-05T02:13:00.328Z,1016.7
2023-07-05T02:18:26.905Z,1016.6
2023-07-05T02:24:24.044Z,1016.8
2023-07-05T02:29:57.944Z,1016.8
2023-07-05T02:35:24.783Z,1016.9
2023-07-05T02:40:48.358Z,1016.9
2023-07-05T02:46:23.871Z,1016.9
2023-07-05T02:52:03.447Z,1016.9
2023-07-05T02:57:47.288Z,1016.8
2023-07-05T03:03:04.314Z,1016.8
2023-07-05T03:08:44.471Z,1016.6
2023-07-05T03:14:33.165Z,1016.7
2023-07-05T03:20:08.227Z,1016.8
2023-07-05T03:25:29.159Z,1016.9
2023-07-05T03:31:08.161Z,1017
2023-07-05T03:36:42.157Z,1017
2023-07-05T03:42:10.267Z,1016.9
2023-07-05T03:47:43.118Z,1016.9
2023-07-05T03:53:16.383Z,1017
2023-07-05T03:58:57.272Z,1017.1
2023-07-05T04:04:22.471Z,1017.1
2023-07-05T04:10:14.233Z,1017.1
2023-07-05T04:15:35.171Z,1017.1
2023-07-05T04:21:22.797Z,1017.2
2023-07-05T04:26:43.850Z,1017.2
2023-07-05T04:32:05.604Z,1017.1
2023-07-05T04:37:53.122Z,1017.1
2023-07-05T04:49:08.871Z,1017.4
2023-07-05T04:54:31.872Z,1017.3
2023-07-05T05:00:22.476Z,1017.3
2023-07-05T05:05:44.530Z,1017.2
2023-07-05T05:11:28.850Z,1017.2
2023-07-05T05:16:53.296Z,1017
2023-07-05T05:22:22.944Z,1016.3
2023-07-05T05:28:13.711Z,1016
2023-07-05T05:33:35.041Z,1015.6
2023-07-05T05:39:22.085Z,1015.5
2023-07-05T05:44:55.194Z,1015.5
2023-07-05T05:50:15.467Z,1015.6
2023-07-05T05:56:09.910Z,1015.9
2023-07-05T06:01:28.970Z,1016
2023-07-05T06:06:57.812Z,1016
2023-07-05T06:12:38.451Z,1016.1
2023-07-05T06:18:08.936Z,1016.3
2023-07-05T06:23:47.832Z,1016.5
2023-07-05T06:29:30.213Z,1017
2023-07-05T06:35:00.834Z,1017.4
2023-07-05T06:40:28.396Z,1017.8
2023-07-05T06:46:11.329Z,1018
2023-07-05T06:51:58.741Z,1018.4
2023-07-05T06:57:15.056Z,1018.4
2023-07-05T07:03:10.387Z,1018.3
2023-07-05T07:08:27.925Z,1018.1
2023-07-05T07:14:09.752Z,1018
2023-07-05T07:19:39.132Z,1017.8
2023-07-05T07:25:21.160Z,1017.6
2023-07-05T07:31:01.019Z,1017.3
2023-07-05T07:36:31.351Z,1017.3
2023-07-05T07:42:04.091Z,1017.1
2023-07-05T07:47:37.097Z,1017
2023-07-05T07:53:10.120Z,1016.8
2023-07-05T07:59:07.389Z,1016.9
2023-07-05T08:04:38.697Z,1016.9
2023-07-05T08:10:00.651Z,1016.7
2023-07-05T08:15:30.989Z,1017
2023-07-05T08:21:22.148Z,1016.9
2023-07-05T08:26:48.539Z,1017.1
2023-07-05T08:32:41.706Z,1017.1
2023-07-05T08:49:28.832Z,1017.9
2023-07-05T08:54:59.710Z,1018.1
2023-07-05T09:00:24.659Z,1017.9
2023-07-05T09:06:10.934Z,1017.7
2023-07-05T09:11:23.196Z,1017.6
2023-07-05T09:17:05.292Z,1017.6
2023-07-05T09:22:57.757Z,1017.5
2023-07-05T09:28:14.153Z,1017.4
2023-07-05T09:34:12.891Z,1017.4
2023-07-05T09:39:27.479Z,1017.4
2023-07-05T09:45:15.546Z,1017.4
2023-07-05T09:50:58.418Z,1017.6
2023-07-05T09:56:35.287Z,1017.9
2023-07-05T10:02:07.127Z,1018.3
2023-07-05T10:07:40.483Z,1018.3
2023-07-05T10:18:34.915Z,1018.3
2023-07-05T10:24:14.053Z,1018.3
2023-07-05T10:30:00.528Z,1018.1
2023-07-05T10:35:27.795Z,1018.1
2023-07-05T10:40:57.051Z,1018.2
2023-07-05T10:46:52.342Z,1018.1
2023-07-05T10:52:13.933Z,1017.9
2023-07-05T11:09:20.718Z,1018.1
2023-07-05T11:14:38.052Z,1018
2023-07-05T11:20:30.572Z,1017.9
2023-07-05T11:25:49.136Z,1017.7
2023-07-05T11:31:35.387Z,1017.7
2023-07-05T11:37:22.467Z,1017.5
2023-07-05T11:42:51.649Z,1017.4
2023-07-05T11:53:58.790Z,1017.2
2023-07-05T11:59:45.424Z,1017.1
2023-07-05T12:05:32.367Z,1017.2
2023-07-05T12:10:59.436Z,1017.2
2023-07-05T12:16:44.134Z,1017
2023-07-05T12:22:07.939Z,1017
2023-07-05T12:27:35.867Z,1017.1
2023-07-05T12:33:26.203Z,1016.9
2023-07-05T12:38:53.968Z,1016.9
2023-07-05T12:44:29.599Z,1016.9
2023-07-05T12:50:27.336Z,1017.1
2023-07-05T12:56:04.770Z,1016.9
2023-07-05T13:01:38.793Z,1016.9
2023-07-05T13:07:16.152Z,1016.6
2023-07-05T13:13:01.924Z,1016.5
2023-07-05T13:18:20.246Z,1016.7
2023-07-05T13:24:15.600Z,1016.5
2023-07-05T13:29:57.309Z,1016.6
2023-07-05T13:35:26.724Z,1016.5
2023-07-05T13:41:13.786Z,1016.4
2023-07-05T13:46:53.914Z,1016.3
2023-07-05T13:52:13.598Z,1016.3
2023-07-05T13:57:58.629Z,1016.3
2023-07-05T14:03:46.213Z,1016.3
2023-07-05T14:09:20.185Z,1016.4
2023-07-05T14:14:41.262Z,1016.3
2023-07-05T14:20:40.472Z,1016.4
2023-07-05T14:26:07.438Z,1016.5
2023-07-05T14:31:44.557Z,1016.6
2023-07-05T14:37:38.641Z,1016.5
2023-07-05T14:43:01.699Z,1016.6
2023-07-05T14:48:41.752Z,1016.5
2023-07-05T14:54:23.898Z,1016.6
2023-07-05T15:00:07.312Z,1016.2
2023-07-05T15:05:35.472Z,1016.4
2023-07-05T15:11:16.175Z,1016.3
2023-07-05T15:17:00.887Z,1016.5
2023-07-05T15:22:32.561Z,1016.5
2023-07-05T15:28:02.927Z,1016.5
2023-07-05T15:33:37.809Z,1016.6
2023-07-05T15:39:14.264Z,1016.5
2023-07-05T15:45:04.128Z,1016.5
2023-07-05T15:50:36.577Z,1016.4
2023-07-05T15:55:57.019Z,1016.6
2023-07-05T16:01:56.753Z,1016.6
2023-07-05T16:07:14.311Z,1016.5
2023-07-05T16:12:49.827Z,1016.5
2023-07-05T16:24:08.560Z,1016.4
2023-07-05T16:29:46.137Z,1016.4
2023-07-05T16:35:14.545Z,1016.2
2023-07-05T16:40:56.793Z,1016.3
2023-07-05T16:46:52.104Z,1016.5
2023-07-05T16:52:10.718Z,1016.4
2023-07-05T16:57:49.988Z,1016.4
2023-07-05T17:03:34.339Z,1016.4
2023-07-05T17:08:59.372Z,1016.4
2023-07-05T17:14:39.919Z,1016.3
2023-07-05T17:20:31.724Z,1016.2
2023-07-05T17:26:08.531Z,1016.4
2023-07-05T17:31:37.592Z,1016.2
2023-07-05T17:37:16.656Z,1016.2
2023-07-05T17:42:40.352Z,1016.3
2023-07-05T17:48:19.304Z,1016.4
2023-07-05T17:59:27.521Z,1016.4
2023-07-05T18:05:07.951Z,1016.4
2023-07-05T18:11:06.798Z,1016.4
2023-07-05T18:16:17.837Z,1016.6
2023-07-05T18:22:04.269Z,1016.7
2023-07-05T18:27:33.962Z,1016.8
2023-07-05T18:33:32.649Z,1016.8
2023-07-05T18:38:47.308Z,1016.9
2023-07-05T18:44:35.894Z,1017.1
2023-07-05T18:50:04.207Z,1017.1
2023-07-05T18:55:51.453Z,1017.3
2023-07-05T19:01:11.540Z,1017.3
2023-07-05T19:06:53.917Z,1017.5
2023-07-05T19:12:17.856Z,1017.6
2023-07-05T19:17:59.986Z,1017.7
2023-07-05T19:23:22.797Z,1018
2023-07-05T19:28:56.779Z,1018.1
2023-07-05T19:34:32.705Z,1018.1
2023-07-05T19:40:06.999Z,1018.1
2023-07-05T19:45:49.997Z,1018.3
2023-07-05T19:51:43.108Z,1018.2
2023-07-05T19:57:06.817Z,1017.9
2023-07-05T20:02:53.198Z,1018
2023-07-05T20:08:25.193Z,1018.1
2023-07-05T20:13:37.220Z,1018.3
2023-07-05T20:19:23.352Z,1018.5
2023-07-05T20:25:05.261Z,1018.4
2023-07-05T20:30:38.596Z,1018.4
2023-07-05T20:36:11.933Z,1018.5
2023-07-05T20:41:47.367Z,1018.5
2023-07-05T20:47:29.124Z,1018.6
2023-07-05T20:53:04.320Z,1018.5
2023-07-05T20:58:19.330Z,1018.6
2023-07-05T21:04:03.606Z,1018.7
2023-07-05T21:09:32.981Z,1018.6
2023-07-05T21:15:17.440Z,1018.8
2023-07-05T21:20:57.090Z,1018.6
2023-07-05T21:26:19.113Z,1018.8
2023-07-05T21:32:08.574Z,1018.8
2023-07-05T21:37:20.020Z,1018.8
2023-07-05T21:48:34.965Z,1018.9
2023-07-05T21:54:14.572Z,1019
2023-07-05T21:59:47.235Z,1019.1
2023-07-05T22:05:33.098Z,1019
2023-07-05T22:11:12.826Z,1018.9
2023-07-05T22:16:33.981Z,1018.9
2023-07-05T22:21:55.429Z,1019
2023-07-05T22:27:39.413Z,1019.2
2023-07-05T22:33:02.401Z,1019.2
2023-07-05T22:38:42.390Z,1019.1
2023-07-05T22:44:22.447Z,1019
2023-07-05T22:50:13.769Z,1019.1
2023-07-05T22:55:37.210Z,1019.1
2023-07-05T23:01:16.920Z,1018.9
2023-07-05T23:06:56.411Z,1019
2023-07-05T23:12:28.948Z,1019.3
2023-07-05T23:17:56.539Z,1019.3
2023-07-05T23:23:11.385Z,1019.2
2023-07-05T23:29:12.240Z,1019.2
2023-07-05T23:34:22.919Z,1019.2
2023-07-05T23:40:05.841Z,1019
2023-07-05T23:45:47.322Z,1018.9
2023-07-05T23:51:03.179Z,1019
2023-07-05T23:56:39.740Z,1018.9
